createdAt,value
2018-05-12T00:00:12.984Z,20.82
2018-05-12T00:00:50.643Z,20.83
2018-05-12T00:01:27.970Z,20.80
2018-05-12T00:02:06.103Z,20.80
2018-05-12T00:02:43.652Z,20.79
2018-05-12T00:03:21.032Z,20.82
2018-05-12T00:03:58.649Z,20.82
2018-05-12T00:04:36.233Z,20.85
2018-05-12T00:05:13.777Z,20.85
2018-05-12T00:05:51.351Z,20.87
2018-05-12T00:06:28.830Z,20.90
2018-05-12T00:07:06.932Z,20.95
2018-05-12T00:07:44.394Z,20.97
2018-05-12T00:08:21.922Z,20.99
2018-05-12T00:08:59.418Z,21.00
2018-05-12T00:09:37.795Z,21.02
2018-05-12T00:10:15.376Z,21.05
2018-05-12T00:10:52.999Z,21.03
2018-05-12T00:11:30.537Z,21.02
2018-05-12T00:12:08.087Z,20.99
2018-05-12T00:12:45.458Z,20.96
2018-05-12T00:13:23.037Z,20.91
2018-05-12T00:14:01.208Z,20.86
2018-05-12T00:14:38.766Z,20.82
2018-05-12T00:15:16.294Z,20.80
2018-05-12T00:15:53.820Z,20.81
2018-05-12T00:16:31.393Z,20.83
2018-05-12T00:17:09.596Z,20.81
2018-05-12T00:17:47.138Z,20.81
2018-05-12T00:18:24.629Z,20.81
2018-05-12T00:19:02.217Z,20.82
2018-05-12T00:19:40.344Z,20.81
2018-05-12T00:20:17.919Z,20.84
2018-05-12T00:20:56.103Z,20.87
2018-05-12T00:21:33.494Z,20.86
2018-05-12T00:22:11.049Z,20.86
2018-05-12T00:22:48.550Z,20.85
2018-05-12T00:23:26.725Z,20.84
2018-05-12T00:24:04.315Z,20.84
2018-05-12T00:24:41.703Z,20.83
2018-05-12T00:25:19.874Z,20.86
2018-05-12T00:25:57.237Z,20.87
2018-05-12T00:26:34.634Z,20.86
2018-05-12T00:27:12.099Z,20.86
2018-05-12T00:27:49.539Z,20.85
2018-05-12T00:28:27.147Z,20.83
2018-05-12T00:29:04.707Z,20.84
2018-05-12T00:29:42.847Z,20.83
2018-05-12T00:30:20.387Z,20.83
2018-05-12T00:30:58.504Z,20.84
2018-05-12T00:31:36.087Z,20.83
2018-05-12T00:32:13.659Z,20.81
2018-05-12T00:32:51.259Z,20.80
2018-05-12T00:33:28.754Z,20.79
2018-05-12T00:34:06.336Z,20.77
2018-05-12T00:34:43.907Z,20.79
2018-05-12T00:35:21.495Z,20.79
2018-05-12T00:35:59.047Z,20.80
2018-05-12T00:36:36.408Z,20.83
2018-05-12T00:37:13.765Z,20.85
2018-05-12T00:37:51.263Z,20.85
2018-05-12T00:38:28.791Z,20.88
2018-05-12T00:39:06.375Z,20.88
2018-05-12T00:39:44.600Z,20.90
2018-05-12T00:40:22.135Z,20.91
2018-05-12T00:40:59.719Z,20.90
2018-05-12T00:41:38.005Z,20.95
2018-05-12T00:42:15.455Z,20.93
2018-05-12T00:42:52.815Z,20.91
2018-05-12T00:43:30.365Z,20.90
2018-05-12T00:44:07.834Z,20.87
2018-05-12T00:44:45.403Z,20.85
2018-05-12T00:45:23.011Z,20.84
2018-05-12T00:46:01.151Z,20.84
2018-05-12T00:46:38.758Z,20.82
2018-05-12T00:47:16.480Z,20.83
2018-05-12T00:47:54.632Z,20.82
2018-05-12T00:48:32.224Z,20.82
2018-05-12T00:49:09.802Z,20.84
2018-05-12T00:49:48.079Z,20.83
2018-05-12T00:50:26.360Z,20.83
2018-05-12T00:51:04.697Z,20.82
2018-05-12T00:51:42.362Z,20.80
2018-05-12T00:52:19.985Z,20.78
2018-05-12T00:52:57.518Z,20.77
2018-05-12T00:53:35.164Z,20.73
2018-05-12T00:54:12.463Z,20.69
2018-05-12T00:54:50.772Z,20.68
2018-05-12T00:55:28.153Z,20.66
2018-05-12T00:56:05.620Z,20.64
2018-05-12T00:56:43.130Z,20.64
2018-05-12T00:57:20.554Z,20.67
2018-05-12T00:57:58.097Z,20.68
2018-05-12T00:58:35.639Z,20.71
2018-05-12T00:59:13.158Z,20.72
2018-05-12T00:59:50.752Z,20.75
2018-05-12T01:00:28.306Z,20.80
2018-05-12T01:01:05.900Z,20.82
2018-05-12T01:01:43.427Z,20.85
2018-05-12T01:02:21.023Z,20.86
2018-05-12T01:02:58.579Z,20.86
2018-05-12T01:03:36.117Z,20.86
2018-05-12T01:04:14.385Z,20.86
2018-05-12T01:04:51.992Z,20.87
2018-05-12T01:05:29.565Z,20.86
2018-05-12T01:06:07.151Z,20.84
2018-05-12T01:06:44.716Z,20.80
2018-05-12T01:07:23.010Z,20.79
2018-05-12T01:08:00.490Z,20.77
2018-05-12T01:08:38.088Z,20.76
2018-05-12T01:09:15.600Z,20.76
2018-05-12T01:09:53.176Z,20.75
2018-05-12T01:10:30.510Z,20.73
2018-05-12T01:11:08.002Z,20.72
2018-05-12T01:11:45.599Z,20.71
2018-05-12T01:12:23.162Z,20.73
2018-05-12T01:13:00.758Z,20.72
2018-05-12T01:13:38.108Z,20.75
2018-05-12T01:14:15.642Z,20.76
2018-05-12T01:14:53.181Z,20.77
2018-05-12T01:15:30.771Z,20.78
2018-05-12T01:16:08.332Z,20.81
2018-05-12T01:16:45.906Z,20.81
2018-05-12T01:17:23.256Z,20.84
2018-05-12T01:18:00.848Z,20.85
2018-05-12T01:18:38.977Z,20.85
2018-05-12T01:19:16.543Z,20.87
2018-05-12T01:19:54.094Z,20.85
2018-05-12T01:20:31.559Z,20.85
2018-05-12T01:21:09.047Z,20.85
2018-05-12T01:21:46.364Z,20.84
2018-05-12T01:22:23.891Z,20.84
2018-05-12T01:23:01.282Z,20.86
2018-05-12T01:23:39.427Z,20.88
2018-05-12T01:24:16.883Z,20.88
2018-05-12T01:24:54.619Z,20.89
2018-05-12T01:25:32.797Z,20.88
2018-05-12T01:26:11.068Z,20.87
2018-05-12T01:26:49.368Z,20.89
2018-05-12T01:27:26.988Z,20.90
2018-05-12T01:28:04.554Z,20.90
2018-05-12T01:28:42.135Z,20.87
2018-05-12T01:29:19.726Z,20.85
2018-05-12T01:29:58.070Z,20.80
2018-05-12T01:30:35.444Z,20.78
2018-05-12T01:31:12.862Z,20.77
2018-05-12T01:31:50.208Z,20.76
2018-05-12T01:32:27.561Z,20.77
2018-05-12T01:33:05.229Z,20.78
2018-05-12T01:33:43.605Z,20.77
2018-05-12T01:34:21.152Z,20.79
2018-05-12T01:34:59.472Z,20.81
2018-05-12T01:35:37.840Z,20.84
2018-05-12T01:36:16.161Z,20.88
2018-05-12T01:36:54.293Z,20.90
2018-05-12T01:37:31.840Z,20.94
2018-05-12T01:38:09.258Z,20.92
2018-05-12T01:38:46.813Z,20.88
2018-05-12T01:39:24.383Z,20.89
2018-05-12T01:40:02.751Z,20.85
2018-05-12T01:40:40.150Z,20.88
2018-05-12T01:41:17.734Z,20.88
2018-05-12T01:41:55.959Z,20.88
2018-05-12T01:42:33.529Z,20.90
2018-05-12T01:43:11.071Z,20.91
2018-05-12T01:43:48.709Z,20.96
2018-05-12T01:44:26.892Z,20.97
2018-05-12T01:45:04.460Z,20.94
2018-05-12T01:45:42.629Z,20.94
2018-05-12T01:46:19.998Z,20.93
2018-05-12T01:46:58.090Z,20.89
2018-05-12T01:47:35.687Z,20.85
2018-05-12T01:48:14.062Z,20.83
2018-05-12T01:48:52.376Z,20.83
2018-05-12T01:49:30.518Z,20.82
2018-05-12T01:50:08.124Z,20.85
2018-05-12T01:50:45.651Z,20.84
2018-05-12T01:51:23.238Z,20.88
2018-05-12T01:52:00.826Z,20.91
2018-05-12T01:52:38.406Z,20.88
2018-05-12T01:53:15.767Z,20.85
2018-05-12T01:53:53.105Z,20.84
2018-05-12T01:54:30.647Z,20.82
2018-05-12T01:55:08.274Z,20.82
2018-05-12T01:55:46.423Z,20.82
2018-05-12T01:56:23.785Z,20.85
2018-05-12T01:57:01.416Z,20.86
2018-05-12T01:57:38.890Z,20.85
2018-05-12T01:58:16.420Z,20.86
2018-05-12T01:58:53.805Z,20.84
2018-05-12T01:59:31.380Z,20.85
2018-05-12T02:00:08.906Z,20.83
2018-05-12T02:00:46.492Z,20.83
2018-05-12T02:01:24.687Z,20.82
2018-05-12T02:02:02.846Z,20.83
2018-05-12T02:02:40.214Z,20.83
2018-05-12T02:03:17.583Z,20.82
2018-05-12T02:03:54.902Z,20.79
2018-05-12T02:04:32.499Z,20.78
2018-05-12T02:05:10.116Z,20.79
2018-05-12T02:05:48.434Z,20.78
2018-05-12T02:06:26.101Z,20.78
2018-05-12T02:07:04.501Z,20.76
2018-05-12T02:07:42.051Z,20.76
2018-05-12T02:08:19.610Z,20.77
2018-05-12T02:08:57.206Z,20.77
2018-05-12T02:09:35.578Z,20.76
2018-05-12T02:10:13.099Z,20.74
2018-05-12T02:10:50.422Z,20.73
2018-05-12T02:11:27.842Z,20.75
2018-05-12T02:12:05.402Z,20.77
2018-05-12T02:12:43.586Z,20.77
2018-05-12T02:13:21.200Z,20.77
2018-05-12T02:13:58.680Z,20.75
2018-05-12T02:14:36.211Z,20.75
2018-05-12T02:15:13.823Z,20.76
2018-05-12T02:15:51.998Z,20.77
2018-05-12T02:16:29.443Z,20.76
2018-05-12T02:17:06.810Z,20.77
2018-05-12T02:17:44.431Z,20.74
2018-05-12T02:18:22.026Z,20.74
2018-05-12T02:18:59.618Z,20.76
2018-05-12T02:19:37.124Z,20.77
2018-05-12T02:20:14.663Z,20.76
2018-05-12T02:20:52.857Z,20.78
2018-05-12T02:21:30.142Z,20.78
2018-05-12T02:22:07.700Z,20.79
2018-05-12T02:22:45.195Z,20.78
2018-05-12T02:23:22.578Z,20.77
2018-05-12T02:24:00.131Z,20.76
2018-05-12T02:24:37.583Z,20.73
2018-05-12T02:25:14.994Z,20.73
2018-05-12T02:25:53.102Z,20.72
2018-05-12T02:26:30.555Z,20.72
2018-05-12T02:27:08.095Z,20.68
2018-05-12T02:27:45.449Z,20.65
2018-05-12T02:28:23.002Z,20.65
2018-05-12T02:29:00.440Z,20.69
2018-05-12T02:29:38.065Z,20.69
2018-05-12T02:30:15.739Z,20.67
2018-05-12T02:30:53.099Z,20.64
2018-05-12T02:31:30.459Z,20.60
2018-05-12T02:32:08.100Z,20.58
2018-05-12T02:32:45.518Z,20.56
2018-05-12T02:33:23.909Z,20.55
2018-05-12T02:34:01.321Z,20.53
2018-05-12T02:34:38.838Z,20.53
2018-05-12T02:35:16.425Z,20.49
2018-05-12T02:35:53.902Z,20.49
2018-05-12T02:36:31.463Z,20.47
2018-05-12T02:37:09.744Z,20.48
2018-05-12T02:37:47.087Z,20.48
2018-05-12T02:38:24.486Z,20.46
2018-05-12T02:39:01.982Z,20.47
2018-05-12T02:39:39.618Z,20.50
2018-05-12T02:40:17.762Z,20.51
2018-05-12T02:40:55.853Z,20.55
2018-05-12T02:41:33.963Z,20.59
2018-05-12T02:42:11.446Z,20.65
2018-05-12T02:42:48.997Z,20.68
2018-05-12T02:43:27.279Z,20.71
2018-05-12T02:44:04.660Z,20.73
2018-05-12T02:44:42.029Z,20.73
2018-05-12T02:45:19.561Z,20.76
2018-05-12T02:45:57.114Z,20.79
2018-05-12T02:46:34.728Z,20.83
2018-05-12T02:47:12.331Z,20.81
2018-05-12T02:47:50.566Z,20.80
2018-05-12T02:48:27.902Z,20.79
2018-05-12T02:49:05.430Z,20.76
2018-05-12T02:49:43.036Z,20.76
2018-05-12T02:50:20.618Z,20.75
2018-05-12T02:50:58.169Z,20.69
2018-05-12T02:51:35.670Z,20.70
2018-05-12T02:52:13.297Z,20.68
2018-05-12T02:52:50.719Z,20.65
2018-05-12T02:53:28.312Z,20.64
2018-05-12T02:54:05.897Z,20.63
2018-05-12T02:54:43.467Z,20.63
2018-05-12T02:55:21.038Z,20.60
2018-05-12T02:55:58.596Z,20.58
2018-05-12T02:56:36.156Z,20.59
2018-05-12T02:57:14.312Z,20.60
2018-05-12T02:57:51.679Z,20.62
2018-05-12T02:58:29.247Z,20.64
2018-05-12T02:59:06.604Z,20.67
2018-05-12T02:59:44.196Z,20.70
2018-05-12T03:00:21.774Z,20.76
2018-05-12T03:00:59.339Z,20.79
2018-05-12T03:01:36.913Z,20.81
2018-05-12T03:02:14.526Z,20.81
2018-05-12T03:02:52.048Z,20.84
2018-05-12T03:03:29.592Z,20.86
2018-05-12T03:04:06.967Z,20.88
2018-05-12T03:04:44.503Z,20.90
2018-05-12T03:05:22.688Z,20.86
2018-05-12T03:06:00.798Z,20.81
2018-05-12T03:06:38.321Z,20.77
2018-05-12T03:07:16.582Z,20.76
2018-05-12T03:07:54.163Z,20.75
2018-05-12T03:08:31.739Z,20.75
2018-05-12T03:09:09.335Z,20.75
2018-05-12T03:09:46.889Z,20.75
2018-05-12T03:10:24.491Z,20.78
2018-05-12T03:11:01.959Z,20.83
2018-05-12T03:11:40.049Z,20.82
2018-05-12T03:12:17.640Z,20.81
2018-05-12T03:12:55.211Z,20.82
2018-05-12T03:13:32.688Z,20.81
2018-05-12T03:14:10.345Z,20.80
2018-05-12T03:14:47.861Z,20.79
2018-05-12T03:15:25.387Z,20.80
2018-05-12T03:16:02.877Z,20.78
2018-05-12T03:16:41.127Z,20.75
2018-05-12T03:17:18.645Z,20.75
2018-05-12T03:17:56.155Z,20.76
2018-05-12T03:18:33.764Z,20.78
2018-05-12T03:19:11.127Z,20.82
2018-05-12T03:19:49.319Z,20.78
2018-05-12T03:20:27.672Z,20.75
2018-05-12T03:21:05.202Z,20.73
2018-05-12T03:21:42.817Z,20.69
2018-05-12T03:22:20.380Z,20.67
2018-05-12T03:22:58.583Z,20.65
2018-05-12T03:23:36.241Z,20.62
2018-05-12T03:24:13.721Z,20.64
2018-05-12T03:24:51.343Z,20.65
2018-05-12T03:25:28.887Z,20.64
2018-05-12T03:26:06.486Z,20.67
2018-05-12T03:26:44.083Z,20.68
2018-05-12T03:27:21.537Z,20.70
2018-05-12T03:27:59.081Z,20.68
2018-05-12T03:28:36.484Z,20.68
2018-05-12T03:29:14.026Z,20.67
2018-05-12T03:29:51.395Z,20.66
2018-05-12T03:30:29.073Z,20.64
2018-05-12T03:31:06.359Z,20.64
2018-05-12T03:31:43.952Z,20.63
2018-05-12T03:32:22.130Z,20.64
2018-05-12T03:32:59.726Z,20.65
2018-05-12T03:33:37.317Z,20.65
2018-05-12T03:34:15.521Z,20.64
2018-05-12T03:34:53.088Z,20.67
2018-05-12T03:35:30.590Z,20.69
2018-05-12T03:36:08.171Z,20.71
2018-05-12T03:36:46.416Z,20.74
2018-05-12T03:37:23.811Z,20.79
2018-05-12T03:38:01.255Z,20.80
2018-05-12T03:38:38.900Z,20.81
2018-05-12T03:39:16.494Z,20.83
2018-05-12T03:39:53.933Z,20.84
2018-05-12T03:40:31.482Z,20.89
2018-05-12T03:41:08.976Z,20.86
2018-05-12T03:41:46.564Z,20.82
2018-05-12T03:42:24.171Z,20.76
2018-05-12T03:43:01.712Z,20.75
2018-05-12T03:43:39.307Z,20.69
2018-05-12T03:44:17.533Z,20.67
2018-05-12T03:44:55.070Z,20.66
2018-05-12T03:45:32.578Z,20.64
2018-05-12T03:46:10.747Z,20.64
2018-05-12T03:46:48.324Z,20.64
2018-05-12T03:47:25.694Z,20.67
2018-05-12T03:48:03.803Z,20.67
2018-05-12T03:48:41.416Z,20.70
2018-05-12T03:49:18.958Z,20.69
2018-05-12T03:49:56.529Z,20.72
2018-05-12T03:50:33.923Z,20.68
2018-05-12T03:51:11.291Z,20.69
2018-05-12T03:51:48.566Z,20.70
2018-05-12T03:52:25.923Z,20.71
2018-05-12T03:53:03.315Z,20.71
2018-05-12T03:53:40.826Z,20.73
2018-05-12T03:54:18.376Z,20.73
2018-05-12T03:54:56.694Z,20.73
2018-05-12T03:55:34.085Z,20.73
2018-05-12T03:56:11.691Z,20.74
2018-05-12T03:56:49.249Z,20.75
2018-05-12T03:57:26.790Z,20.72
2018-05-12T03:58:04.354Z,20.73
2018-05-12T03:58:41.960Z,20.74
2018-05-12T03:59:19.463Z,20.75
2018-05-12T03:59:57.031Z,20.74
2018-05-12T04:00:34.589Z,20.78
2018-05-12T04:01:12.193Z,20.81
2018-05-12T04:01:50.283Z,20.80
2018-05-12T04:02:27.640Z,20.82
2018-05-12T04:03:05.745Z,20.80
2018-05-12T04:03:43.347Z,20.79
2018-05-12T04:04:20.930Z,20.77
2018-05-12T04:04:58.491Z,20.75
2018-05-12T04:05:35.833Z,20.74
2018-05-12T04:06:13.399Z,20.76
2018-05-12T04:06:50.988Z,20.76
2018-05-12T04:07:28.486Z,20.74
2018-05-12T04:08:06.048Z,20.74
2018-05-12T04:08:43.612Z,20.76
2018-05-12T04:09:21.239Z,20.75
2018-05-12T04:09:58.687Z,20.77
2018-05-12T04:10:36.948Z,20.76
2018-05-12T04:11:15.305Z,20.78
2018-05-12T04:11:53.667Z,20.81
2018-05-12T04:12:31.010Z,20.81
2018-05-12T04:13:08.543Z,20.83
2018-05-12T04:13:45.920Z,20.84
2018-05-12T04:14:24.009Z,20.86
2018-05-12T04:15:01.589Z,20.88
2018-05-12T04:15:39.200Z,20.88
2018-05-12T04:16:16.760Z,20.88
2018-05-12T04:16:54.385Z,20.89
2018-05-12T04:17:32.785Z,20.90
2018-05-12T04:18:10.184Z,20.92
2018-05-12T04:18:48.542Z,20.92
2018-05-12T04:19:25.931Z,20.95
2018-05-12T04:20:03.334Z,20.94
2018-05-12T04:20:40.647Z,20.96
2018-05-12T04:21:18.292Z,20.96
2018-05-12T04:21:55.830Z,20.97
2018-05-12T04:22:33.352Z,20.92
2018-05-12T04:23:10.713Z,20.90
2018-05-12T04:23:49.080Z,20.92
2018-05-12T04:24:26.430Z,20.92
2018-05-12T04:25:03.758Z,20.93
2018-05-12T04:25:41.212Z,20.92
2018-05-12T04:26:18.780Z,20.93
2018-05-12T04:26:56.363Z,20.92
2018-05-12T04:27:34.548Z,20.94
2018-05-12T04:28:12.664Z,20.97
2018-05-12T04:28:50.252Z,20.96
2018-05-12T04:29:27.770Z,20.93
2018-05-12T04:30:06.112Z,20.90
2018-05-12T04:30:43.737Z,20.89
2018-05-12T04:31:21.259Z,20.87
2018-05-12T04:31:59.351Z,20.84
2018-05-12T04:32:36.870Z,20.82
2018-05-12T04:33:14.468Z,20.81
2018-05-12T04:33:51.955Z,20.78
2018-05-12T04:34:29.426Z,20.75
2018-05-12T04:35:06.846Z,20.73
2018-05-12T04:35:44.420Z,20.74
2018-05-12T04:36:22.056Z,20.73
2018-05-12T04:36:59.404Z,20.73
2018-05-12T04:37:36.956Z,20.76
2018-05-12T04:38:14.601Z,20.78
2018-05-12T04:38:52.146Z,20.80
2018-05-12T04:39:29.606Z,20.82
2018-05-12T04:40:07.106Z,20.82
2018-05-12T04:40:44.678Z,20.84
2018-05-12T04:41:22.975Z,20.87
2018-05-12T04:42:01.287Z,20.91
2018-05-12T04:42:38.851Z,20.92
2018-05-12T04:43:16.311Z,20.90
2018-05-12T04:43:54.415Z,20.88
2018-05-12T04:44:32.515Z,20.86
2018-05-12T04:45:10.121Z,20.83
2018-05-12T04:45:48.396Z,20.82
2018-05-12T04:46:26.480Z,20.83
2018-05-12T04:47:04.067Z,20.84
2018-05-12T04:47:41.609Z,20.85
2018-05-12T04:48:19.261Z,20.86
2018-05-12T04:48:56.806Z,20.87
2018-05-12T04:49:34.390Z,20.85
2018-05-12T04:50:11.760Z,20.85
2018-05-12T04:50:50.069Z,20.88
2018-05-12T04:51:27.615Z,20.93
2018-05-12T04:52:05.948Z,20.95
2018-05-12T04:52:43.299Z,20.96
2018-05-12T04:53:20.754Z,20.99
2018-05-12T04:53:58.157Z,20.98
2018-05-12T04:54:35.541Z,20.95
2018-05-12T04:55:13.139Z,20.94
2018-05-12T04:55:51.465Z,20.93
2018-05-12T04:56:28.935Z,20.93
2018-05-12T04:57:07.125Z,20.92
2018-05-12T04:57:44.491Z,20.93
2018-05-12T04:58:22.088Z,20.93
2018-05-12T04:58:59.693Z,20.93
2018-05-12T04:59:37.846Z,20.93
2018-05-12T05:00:15.361Z,20.92
2018-05-12T05:00:52.895Z,20.90
2018-05-12T05:01:30.283Z,20.90
2018-05-12T05:02:07.855Z,20.88
2018-05-12T05:02:45.481Z,20.89
2018-05-12T05:03:23.043Z,20.91
2018-05-12T05:04:01.226Z,20.90
2018-05-12T05:04:38.874Z,20.88
2018-05-12T05:05:16.404Z,20.88
2018-05-12T05:05:54.631Z,20.90
2018-05-12T05:06:32.128Z,20.92
2018-05-12T05:07:09.678Z,20.90
2018-05-12T05:07:47.212Z,20.90
2018-05-12T05:08:24.700Z,20.93
2018-05-12T05:09:03.009Z,20.95
2018-05-12T05:09:40.603Z,21.00
2018-05-12T05:10:18.177Z,21.03
2018-05-12T05:10:55.606Z,21.00
2018-05-12T05:11:33.252Z,21.00
2018-05-12T05:12:11.323Z,21.00
2018-05-12T05:12:48.914Z,21.03
2018-05-12T05:13:26.472Z,21.01
2018-05-12T05:14:03.878Z,20.96
2018-05-12T05:14:41.432Z,20.93
2018-05-12T05:15:19.092Z,20.90
2018-05-12T05:15:56.599Z,20.88
2018-05-12T05:16:34.116Z,20.88
2018-05-12T05:17:11.566Z,20.88
2018-05-12T05:17:48.946Z,20.90
2018-05-12T05:18:27.237Z,20.89
2018-05-12T05:19:04.595Z,20.86
2018-05-12T05:19:42.179Z,20.85
2018-05-12T05:20:20.275Z,20.81
2018-05-12T05:20:58.604Z,20.82
2018-05-12T05:21:36.048Z,20.82
2018-05-12T05:22:13.527Z,20.80
2018-05-12T05:22:51.125Z,20.79
2018-05-12T05:23:28.719Z,20.81
2018-05-12T05:24:06.045Z,20.81
2018-05-12T05:24:43.588Z,20.82
2018-05-12T05:25:21.179Z,20.78
2018-05-12T05:25:58.515Z,20.79
2018-05-12T05:26:36.627Z,20.78
2018-05-12T05:27:14.239Z,20.80
2018-05-12T05:27:51.590Z,20.79
2018-05-12T05:28:29.021Z,20.83
2018-05-12T05:29:06.539Z,20.79
2018-05-12T05:29:44.071Z,20.77
2018-05-12T05:30:22.404Z,20.77
2018-05-12T05:31:00.594Z,20.75
2018-05-12T05:31:37.944Z,20.74
2018-05-12T05:32:15.583Z,20.73
2018-05-12T05:32:52.933Z,20.71
2018-05-12T05:33:30.452Z,20.72
2018-05-12T05:34:08.604Z,20.76
2018-05-12T05:34:46.155Z,20.77
2018-05-12T05:35:23.850Z,20.76
2018-05-12T05:36:01.241Z,20.78
2018-05-12T05:36:39.335Z,20.77
2018-05-12T05:37:16.965Z,20.77
2018-05-12T05:37:54.503Z,20.76
2018-05-12T05:38:32.783Z,20.77
2018-05-12T05:39:11.088Z,20.77
2018-05-12T05:39:49.394Z,20.78
2018-05-12T05:40:26.744Z,20.76
2018-05-12T05:41:04.156Z,20.76
2018-05-12T05:41:41.816Z,20.78
2018-05-12T05:42:19.295Z,20.79
2018-05-12T05:42:56.575Z,20.81
2018-05-12T05:43:34.151Z,20.80
2018-05-12T05:44:11.692Z,20.80
2018-05-12T05:44:49.222Z,20.84
2018-05-12T05:45:27.626Z,20.85
2018-05-12T05:46:05.237Z,20.87
2018-05-12T05:46:42.795Z,20.89
2018-05-12T05:47:20.403Z,20.89
2018-05-12T05:47:57.760Z,20.88
2018-05-12T05:48:35.234Z,20.88
2018-05-12T05:49:12.580Z,20.86
2018-05-12T05:49:50.155Z,20.87
2018-05-12T05:50:28.278Z,20.87
2018-05-12T05:51:05.861Z,20.86
2018-05-12T05:51:44.206Z,20.86
2018-05-12T05:52:21.824Z,20.86
2018-05-12T05:52:59.213Z,20.85
2018-05-12T05:53:36.691Z,20.85
2018-05-12T05:54:14.203Z,20.86
2018-05-12T05:54:51.785Z,20.86
2018-05-12T05:55:29.953Z,20.87
2018-05-12T05:56:07.544Z,20.86
2018-05-12T05:56:45.137Z,20.84
2018-05-12T05:57:23.502Z,20.85
2018-05-12T05:58:01.102Z,20.85
2018-05-12T05:58:38.506Z,20.83
2018-05-12T05:59:16.576Z,20.82
2018-05-12T05:59:54.197Z,20.81
2018-05-12T06:00:31.699Z,20.84
2018-05-12T06:01:09.310Z,20.88
2018-05-12T06:01:46.684Z,20.90
2018-05-12T06:02:24.268Z,20.97
2018-05-12T06:03:01.855Z,20.97
2018-05-12T06:03:39.437Z,20.96
2018-05-12T06:04:17.005Z,20.96
2018-05-12T06:04:54.543Z,20.92
2018-05-12T06:05:31.932Z,20.94
2018-05-12T06:06:09.555Z,20.91
2018-05-12T06:06:47.172Z,20.91
2018-05-12T06:07:24.738Z,20.89
2018-05-12T06:08:02.179Z,20.88
2018-05-12T06:08:39.772Z,20.85
2018-05-12T06:09:17.143Z,20.85
2018-05-12T06:09:55.234Z,20.88
2018-05-12T06:10:32.616Z,20.87
2018-05-12T06:11:10.188Z,20.86
2018-05-12T06:11:47.541Z,20.84
2018-05-12T06:12:25.094Z,20.84
2018-05-12T06:13:02.631Z,20.85
2018-05-12T06:13:40.228Z,20.83
2018-05-12T06:14:17.719Z,20.83
2018-05-12T06:14:55.298Z,20.79
2018-05-12T06:15:32.732Z,20.81
2018-05-12T06:16:10.239Z,20.81
2018-05-12T06:16:47.839Z,20.81
2018-05-12T06:17:25.328Z,20.80
2018-05-12T06:18:02.968Z,20.83
2018-05-12T06:18:40.483Z,20.83
2018-05-12T06:19:18.659Z,20.82
2018-05-12T06:19:56.271Z,20.84
2018-05-12T06:20:33.731Z,20.83
2018-05-12T06:21:11.322Z,20.86
2018-05-12T06:21:48.906Z,20.86
2018-05-12T06:22:26.219Z,20.88
2018-05-12T06:23:04.545Z,20.86
2018-05-12T06:23:42.063Z,20.87
2018-05-12T06:24:19.578Z,20.87
2018-05-12T06:24:57.180Z,20.83
2018-05-12T06:25:34.784Z,20.82
2018-05-12T06:26:12.979Z,20.82
2018-05-12T06:26:50.568Z,20.82
2018-05-12T06:27:28.154Z,20.85
2018-05-12T06:28:05.674Z,20.86
2018-05-12T06:28:43.052Z,20.88
2018-05-12T06:29:21.167Z,20.90
2018-05-12T06:29:59.290Z,20.91
2018-05-12T06:30:37.461Z,20.89
2018-05-12T06:31:15.071Z,20.89
2018-05-12T06:31:52.652Z,20.89
2018-05-12T06:32:30.215Z,20.88
2018-05-12T06:33:07.803Z,20.88
2018-05-12T06:33:45.272Z,20.87
2018-05-12T06:34:22.762Z,20.86
2018-05-12T06:35:00.237Z,20.86
2018-05-12T06:35:37.819Z,20.89
2018-05-12T06:36:15.417Z,20.91
2018-05-12T06:36:53.595Z,20.91
2018-05-12T06:37:31.205Z,20.90
2018-05-12T06:38:08.746Z,20.90
2018-05-12T06:38:46.376Z,20.92
2018-05-12T06:39:24.635Z,20.91
2018-05-12T06:40:02.278Z,20.93
2018-05-12T06:40:39.911Z,20.94
2018-05-12T06:41:17.530Z,20.95
2018-05-12T06:41:55.002Z,20.94
2018-05-12T06:42:32.548Z,20.93
2018-05-12T06:43:10.115Z,20.94
2018-05-12T06:43:47.734Z,20.95
2018-05-12T06:44:26.088Z,20.97
2018-05-12T06:45:03.727Z,20.97
2018-05-12T06:45:41.276Z,20.99
2018-05-12T06:46:19.471Z,20.99
2018-05-12T06:46:57.091Z,20.98
2018-05-12T06:47:34.591Z,20.97
2018-05-12T06:48:12.711Z,20.96
2018-05-12T06:48:50.314Z,20.98
2018-05-12T06:49:28.471Z,21.01
2018-05-12T06:50:06.038Z,20.99
2018-05-12T06:50:43.447Z,20.96
2018-05-12T06:51:21.771Z,20.96
2018-05-12T06:51:59.946Z,20.95
2018-05-12T06:52:37.282Z,20.90
2018-05-12T06:53:14.803Z,20.92
2018-05-12T06:53:52.979Z,20.92
2018-05-12T06:54:30.555Z,20.93
2018-05-12T06:55:08.056Z,20.93
2018-05-12T06:55:46.456Z,20.95
2018-05-12T06:56:23.838Z,20.96
2018-05-12T06:57:01.410Z,20.96
2018-05-12T06:57:39.508Z,20.92
2018-05-12T06:58:17.100Z,20.93
2018-05-12T06:58:54.689Z,20.94
2018-05-12T06:59:32.218Z,20.94
2018-05-12T07:00:09.548Z,20.94
2018-05-12T07:00:47.119Z,20.93
2018-05-12T07:01:24.802Z,20.94
2018-05-12T07:02:02.381Z,20.95
2018-05-12T07:02:39.754Z,20.95
2018-05-12T07:03:17.324Z,20.95
2018-05-12T07:03:54.660Z,20.97
2018-05-12T07:04:32.039Z,20.99
2018-05-12T07:05:09.656Z,20.98
2018-05-12T07:05:46.952Z,20.99
2018-05-12T07:06:24.632Z,21.00
2018-05-12T07:07:02.135Z,21.01
2018-05-12T07:07:40.531Z,21.02
2018-05-12T07:08:18.198Z,21.03
2018-05-12T07:08:55.725Z,21.03
2018-05-12T07:09:33.359Z,21.05
2018-05-12T07:10:10.812Z,21.07
2018-05-12T07:10:48.343Z,21.08
2018-05-12T07:11:25.884Z,21.10
2018-05-12T07:12:03.360Z,21.12
2018-05-12T07:12:41.743Z,21.13
2018-05-12T07:13:19.872Z,21.15
2018-05-12T07:13:57.435Z,21.16
2018-05-12T07:14:35.107Z,21.16
2018-05-12T07:15:12.725Z,21.17
2018-05-12T07:15:50.188Z,21.18
2018-05-12T07:16:27.757Z,21.17
2018-05-12T07:17:05.353Z,21.18
2018-05-12T07:17:42.918Z,21.17
2018-05-12T07:18:20.367Z,21.18
2018-05-12T07:18:57.767Z,21.19
2018-05-12T07:19:35.306Z,21.19
2018-05-12T07:20:12.869Z,21.21
2018-05-12T07:20:50.407Z,21.20
2018-05-12T07:21:28.755Z,21.20
2018-05-12T07:22:06.198Z,21.21
2018-05-12T07:22:43.609Z,21.20
2018-05-12T07:23:21.161Z,21.21
2018-05-12T07:23:58.739Z,21.21
2018-05-12T07:24:37.065Z,21.20
2018-05-12T07:25:15.242Z,21.20
2018-05-12T07:25:52.822Z,21.20
2018-05-12T07:26:30.371Z,21.21
2018-05-12T07:27:07.779Z,21.21
2018-05-12T07:27:45.319Z,21.23
2018-05-12T07:28:22.624Z,21.24
2018-05-12T07:29:00.130Z,21.23
2018-05-12T07:29:37.653Z,21.26
2018-05-12T07:30:15.688Z,21.26
2018-05-12T07:30:53.260Z,21.27
2018-05-12T07:31:30.847Z,21.28
2018-05-12T07:32:08.218Z,21.28
2018-05-12T07:32:45.566Z,21.29
2018-05-12T07:33:23.206Z,21.28
2018-05-12T07:34:00.617Z,21.30
2018-05-12T07:34:37.996Z,21.31
2018-05-12T07:35:16.373Z,21.30
2018-05-12T07:35:53.828Z,21.32
2018-05-12T07:36:32.019Z,21.32
2018-05-12T07:37:09.599Z,21.32
2018-05-12T07:37:46.949Z,21.32
2018-05-12T07:38:24.364Z,21.32
2018-05-12T07:39:02.540Z,21.32
2018-05-12T07:39:40.112Z,21.33
2018-05-12T07:40:17.647Z,21.32
2018-05-12T07:40:55.163Z,21.31
2018-05-12T07:41:32.803Z,21.33
2018-05-12T07:42:10.336Z,21.33
2018-05-12T07:42:47.910Z,21.33
2018-05-12T07:43:25.560Z,21.34
2018-05-12T07:44:03.078Z,21.33
2018-05-12T07:44:40.643Z,21.35
2018-05-12T07:45:18.225Z,21.35
2018-05-12T07:45:55.518Z,21.36
2018-05-12T07:46:33.839Z,21.36
2018-05-12T07:47:11.402Z,21.36
2018-05-12T07:47:48.943Z,21.36
2018-05-12T07:48:26.355Z,21.36
2018-05-12T07:49:03.944Z,21.37
2018-05-12T07:49:41.520Z,21.37
2018-05-12T07:50:19.006Z,21.37
2018-05-12T07:50:56.547Z,21.37
2018-05-12T07:51:33.957Z,21.37
2018-05-12T07:52:12.272Z,21.37
2018-05-12T07:52:49.808Z,21.37
2018-05-12T07:53:27.376Z,21.38
2018-05-12T07:54:04.759Z,21.38
2018-05-12T07:54:42.134Z,21.39
2018-05-12T07:55:19.670Z,21.39
2018-05-12T07:55:57.378Z,21.39
2018-05-12T07:56:34.770Z,21.39
2018-05-12T07:57:12.294Z,21.39
2018-05-12T07:57:49.875Z,21.38
2018-05-12T07:58:27.426Z,21.37
2018-05-12T07:59:04.813Z,21.35
2018-05-12T07:59:42.164Z,21.34
2018-05-12T08:00:19.721Z,21.32
2018-05-12T08:00:57.147Z,21.30
2018-05-12T08:01:34.820Z,21.29
2018-05-12T08:02:12.452Z,21.29
2018-05-12T08:02:49.907Z,21.31
2018-05-12T08:03:27.508Z,21.32
2018-05-12T08:04:05.115Z,21.33
2018-05-12T08:04:42.742Z,21.34